Skiathos — DK6478 — position and weather

sailwx.info

Track history (hours):
 
Tides and Currents Weather Stations Pressure Air Temp Water Temp Dewpoint Dewpoint Depression Visibility Wind Speed Wind Dir Waves Ship Positions

Skiathos

Last reported at 2018-Jun-21 14:00 UTC. Time now 2018-Jun-21 14:18 UTC.
Position N 53°50' E 008°51'.

Length 14 m.

Type: Sailing vessel. MMSI: 211552340.

Date/timePositionNaut miles runAvg speedWind from/ knotsBaromVisibWave heightAir tempDewpointWater temp
2018-Jun-21 14:00N 53°50' E 008°51'117 5.0
2018-Jun-20 14:26N 53°31' E 005°36'3 7.3
2018-Jun-20 14:00N 53°30' E 005°31'5 7.7
2018-Jun-20 13:18N 53°29' E 005°22'2 7.9
2018-Jun-20 12:59N 53°28' E 005°18'4 8.2
2018-Jun-20 12:30N 53°27' E 005°12'4 8.2
2018-Jun-20 12:00N 53°25' E 005°05'4 8.2
2018-Jun-20 11:30N 53°23' E 004°59'4 8.4
2018-Jun-20 11:00N 53°22' E 004°53'52 7.2
2018-Jun-20 03:51N 52°32' E 004°32'3 6.8
2018-Jun-20 03:29N 52°29' E 004°32'2 3.3
2018-Jun-20 02:56N 52°28' E 004°34'0 0.0
2018-Jun-19 18:01N 52°28' E 004°34'0 0.0
2018-Jun-19 17:55N 52°28' E 004°34'0 0.0
2018-Jun-19 17:19N 52°28' E 004°34'0 1.4
2018-Jun-19 17:00N 52°28' E 004°33'2 4.0
2018-Jun-19 16:30N 52°27' E 004°31'2 4.8
2018-Jun-19 16:01N 52°24' E 004°29'3 4.7
2018-Jun-19 15:25N 52°22' E 004°28'2 4.6
2018-Jun-19 15:00N 52°20' E 004°26'2 4.4
2018-Jun-19 14:30N 52°18' E 004°25'2 4.4
2018-Jun-19 14:00N 52°16' E 004°23'2 4.6
2018-Jun-19 13:30N 52°14' E 004°21'2 4.7
2018-Jun-19 13:00N 52°12' E 004°19'2 3.8
2018-Jun-19 12:30N 52°11' E 004°17'2 3.6
2018-Jun-19 12:00N 52°09' E 004°16'2 3.1
2018-Jun-19 11:30N 52°08' E 004°15'2 3.4
2018-Jun-19 10:59N 52°06' E 004°16'0 0.0
2018-Jun-19 10:29N 52°06' E 004°16'0 0.0
2018-Jun-19 09:59N 52°06' E 004°16'0 0.0
2018-Jun-19 09:26N 52°06' E 004°16'0 0.0
2018-Jun-19 08:59N 52°06' E 004°16'0 0.0
2018-Jun-19 08:29N 52°06' E 004°16'0 0.0
2018-Jun-18 20:53N 52°06' E 004°16'1 2.1
2018-Jun-18 20:30N 52°07' E 004°15'2 3.2
2018-Jun-18 19:59N 52°07' E 004°13'3 6.4
2018-Jun-18 19:30N 52°05' E 004°09'3 6.5
2018-Jun-18 19:00N 52°04' E 004°04'4 8.1
2018-Jun-18 18:30N 52°01' E 003°59'4 8.2
2018-Jun-18 18:00N 51°58' E 003°56'39 6.4
2018-Jun-18 11:53N 51°33' E 003°06'2 5.7
2018-Jun-18 11:30N 51°31' E 003°04'3 5.7
2018-Jun-18 10:59N 51°30' E 003°00'3 5.9
2018-Jun-18 10:30N 51°28' E 002°57'3 6.0
2018-Jun-18 09:59N 51°25' E 002°53'3 5.4
2018-Jun-18 09:30N 51°25' E 002°49'5 6.0
2018-Jun-18 08:45N 51°24' E 002°42'2 6.4
2018-Jun-18 08:29N 51°24' E 002°39'3 6.3
2018-Jun-18 08:00N 51°23' E 002°35'3 6.0
2018-Jun-18 07:29N 51°22' E 002°30'3 6.9
2018-Jun-18 07:00N 51°20' E 002°26'4 7.6
2018-Jun-18 06:29N 51°18' E 002°21'9 7.7
2018-Jun-18 05:19N 51°12' E 002°09'4 8.0
2018-Jun-18 04:52N 51°10' E 002°04'3 8.1
2018-Jun-18 04:31N 51°09' E 002°00'10 8.5
2018-Jun-18 03:17N 51°08' E 001°44'3 9.1
2018-Jun-18 03:00N 51°09' E 001°40'5 8.6
2018-Jun-18 02:25N 51°08' E 001°32'3 8.1
2018-Jun-18 01:59N 51°06' E 001°27'4 7.9
2018-Jun-18 01:29N 51°04' E 001°22'31 5.9
2018-Jun-17 20:10N 50°47' E 000°40'1 4.9
2018-Jun-17 20:00N 50°47' E 000°39'2 4.9
2018-Jun-17 19:30N 50°46' E 000°35'2 4.7
2018-Jun-17 19:00N 50°45' E 000°32'2 3.9
2018-Jun-17 18:30N 50°44' E 000°29'2 3.5
2018-Jun-17 18:00N 50°43' E 000°27'2 3.3
2018-Jun-17 17:30N 50°43' E 000°24'2 3.2
2018-Jun-17 17:00N 50°42' E 000°22'38 6.9
2018-Jun-17 11:28N 50°38' W 000°38'5 9.8
2018-Jun-17 10:58N 50°39' W 000°46'12 9.5
2018-Jun-17 09:45N 50°43' W 001°03'3 9.0
2018-Jun-17 09:27N 50°45' W 001°06'4 8.0
2018-Jun-17 09:00N 50°45' W 001°12'4 7.1
2018-Jun-17 08:30N 50°46' W 001°17'1 1.1
2018-Jun-17 08:00N 50°46' W 001°18'0 0.0
2018-Jun-16 12:51N 50°46' W 001°18'0 0.0
2018-Jun-16 12:30N 50°46' W 001°18'0 0.0
2018-Jun-16 11:57N 50°46' W 001°18'0 0.0
2018-Jun-16 09:51N 50°46' W 001°18'0 0.0
2018-Jun-16 09:27N 50°46' W 001°18'0 0.0
2018-Jun-16 08:54N 50°46' W 001°18'0 0.0
2018-Jun-15 18:02N 50°46' W 001°18'0 0.0
2018-Jun-15 12:49N 50°46' W 001°18'0 0.1
2018-Jun-15 12:29N 50°46' W 001°18'0 0.0
2018-Jun-15 11:59N 50°46' W 001°18'0 0.0
2018-Jun-15 11:29N 50°46' W 001°18'0 0.1
2018-Jun-15 11:00N 50°46' W 001°18'44 6.1
2018-Jun-15 03:53N 50°12' W 002°02'28 4.5
2018-Jun-14 21:39N 49°46' W 002°17'1 6.3
2018-Jun-14 21:30N 49°45' W 002°18'5 9.4
2018-Jun-14 20:58N 49°41' W 002°21'4 8.9
2018-Jun-14 20:30N 49°37' W 002°24'4 8.2
2018-Jun-14 19:58N 49°33' W 002°27'5 7.6
2018-Jun-14 19:15N 49°28' W 002°30'2 0.0
2018-Jun-13 07:54N 49°27' W 002°32'1 2.1
2018-Jun-13 07:28N 49°27' W 002°31'101 5.4
2018-Jun-12 12:36N 48°37' W 004°46'1 9.5
2018-Jun-12 12:28N 48°37' W 004°48'2 4.7
2018-Jun-12 12:00N 48°35' W 004°47'3 6.8
2018-Jun-12 11:30N 48°32' W 004°50'3 6.7
2018-Jun-12 10:59N 48°30' W 004°54'4 6.5
2018-Jun-12 10:27N 48°28' W 004°58'  
Track history (hours):
 
Tides and Currents Weather Stations Pressure Air Temp Water Temp Dewpoint Dewpoint Depression Visibility Wind Speed Wind Dir Waves Ship Positions

Skiathos

Last reported at 2018-Jun-21 14:00 UTC. Time now 2018-Jun-21 14:18 UTC.
Position N 53°50' E 008°51'.

Length 14 m.

Type: Sailing vessel. MMSI: 211552340.

Date/timePositionNaut miles runAvg speedWind from/ knotsBaromVisibWave heightAir tempDewpointWater temp
2018-Jun-21 14:00N 53°50' E 008°51'117 5.0
2018-Jun-20 14:26N 53°31' E 005°36'3 7.3
2018-Jun-20 14:00N 53°30' E 005°31'5 7.7
2018-Jun-20 13:18N 53°29' E 005°22'2 7.9
2018-Jun-20 12:59N 53°28' E 005°18'4 8.2
2018-Jun-20 12:30N 53°27' E 005°12'4 8.2
2018-Jun-20 12:00N 53°25' E 005°05'4 8.2
2018-Jun-20 11:30N 53°23' E 004°59'4 8.4
2018-Jun-20 11:00N 53°22' E 004°53'52 7.2
2018-Jun-20 03:51N 52°32' E 004°32'3 6.8
2018-Jun-20 03:29N 52°29' E 004°32'2 3.3
2018-Jun-20 02:56N 52°28' E 004°34'0 0.0
2018-Jun-19 18:01N 52°28' E 004°34'0 0.0
2018-Jun-19 17:55N 52°28' E 004°34'0 0.0
2018-Jun-19 17:19N 52°28' E 004°34'0 1.4
2018-Jun-19 17:00N 52°28' E 004°33'2 4.0
2018-Jun-19 16:30N 52°27' E 004°31'2 4.8
2018-Jun-19 16:01N 52°24' E 004°29'3 4.7
2018-Jun-19 15:25N 52°22' E 004°28'2 4.6
2018-Jun-19 15:00N 52°20' E 004°26'2 4.4
2018-Jun-19 14:30N 52°18' E 004°25'2 4.4
2018-Jun-19 14:00N 52°16' E 004°23'2 4.6
2018-Jun-19 13:30N 52°14' E 004°21'2 4.7
2018-Jun-19 13:00N 52°12' E 004°19'2 3.8
2018-Jun-19 12:30N 52°11' E 004°17'2 3.6
2018-Jun-19 12:00N 52°09' E 004°16'2 3.1
2018-Jun-19 11:30N 52°08' E 004°15'2 3.4
2018-Jun-19 10:59N 52°06' E 004°16'0 0.0
2018-Jun-19 10:29N 52°06' E 004°16'0 0.0
2018-Jun-19 09:59N 52°06' E 004°16'0 0.0
2018-Jun-19 09:26N 52°06' E 004°16'0 0.0
2018-Jun-19 08:59N 52°06' E 004°16'0 0.0
2018-Jun-19 08:29N 52°06' E 004°16'0 0.0
2018-Jun-18 20:53N 52°06' E 004°16'1 2.1
2018-Jun-18 20:30N 52°07' E 004°15'2 3.2
2018-Jun-18 19:59N 52°07' E 004°13'3 6.4
2018-Jun-18 19:30N 52°05' E 004°09'3 6.5
2018-Jun-18 19:00N 52°04' E 004°04'4 8.1
2018-Jun-18 18:30N 52°01' E 003°59'4 8.2
2018-Jun-18 18:00N 51°58' E 003°56'39 6.4
2018-Jun-18 11:53N 51°33' E 003°06'2 5.7
2018-Jun-18 11:30N 51°31' E 003°04'3 5.7
2018-Jun-18 10:59N 51°30' E 003°00'3 5.9
2018-Jun-18 10:30N 51°28' E 002°57'3 6.0
2018-Jun-18 09:59N 51°25' E 002°53'3 5.4
2018-Jun-18 09:30N 51°25' E 002°49'5 6.0
2018-Jun-18 08:45N 51°24' E 002°42'2 6.4
2018-Jun-18 08:29N 51°24' E 002°39'3 6.3
2018-Jun-18 08:00N 51°23' E 002°35'3 6.0
2018-Jun-18 07:29N 51°22' E 002°30'3 6.9
2018-Jun-18 07:00N 51°20' E 002°26'4 7.6
2018-Jun-18 06:29N 51°18' E 002°21'9 7.7
2018-Jun-18 05:19N 51°12' E 002°09'4 8.0
2018-Jun-18 04:52N 51°10' E 002°04'3 8.1
2018-Jun-18 04:31N 51°09' E 002°00'10 8.5
2018-Jun-18 03:17N 51°08' E 001°44'3 9.1
2018-Jun-18 03:00N 51°09' E 001°40'5 8.6
2018-Jun-18 02:25N 51°08' E 001°32'3 8.1
2018-Jun-18 01:59N 51°06' E 001°27'4 7.9
2018-Jun-18 01:29N 51°04' E 001°22'31 5.9
2018-Jun-17 20:10N 50°47' E 000°40'1 4.9
2018-Jun-17 20:00N 50°47' E 000°39'2 4.9
2018-Jun-17 19:30N 50°46' E 000°35'2 4.7
2018-Jun-17 19:00N 50°45' E 000°32'2 3.9
2018-Jun-17 18:30N 50°44' E 000°29'2 3.5
2018-Jun-17 18:00N 50°43' E 000°27'2 3.3
2018-Jun-17 17:30N 50°43' E 000°24'2 3.2
2018-Jun-17 17:00N 50°42' E 000°22'38 6.9
2018-Jun-17 11:28N 50°38' W 000°38'5 9.8
2018-Jun-17 10:58N 50°39' W 000°46'12 9.5
2018-Jun-17 09:45N 50°43' W 001°03'3 9.0
2018-Jun-17 09:27N 50°45' W 001°06'4 8.0
2018-Jun-17 09:00N 50°45' W 001°12'4 7.1
2018-Jun-17 08:30N 50°46' W 001°17'1 1.1
2018-Jun-17 08:00N 50°46' W 001°18'0 0.0
2018-Jun-16 12:51N 50°46' W 001°18'0 0.0
2018-Jun-16 12:30N 50°46' W 001°18'0 0.0
2018-Jun-16 11:57N 50°46' W 001°18'0 0.0
2018-Jun-16 09:51N 50°46' W 001°18'0 0.0
2018-Jun-16 09:27N 50°46' W 001°18'0 0.0
2018-Jun-16 08:54N 50°46' W 001°18'0 0.0
2018-Jun-15 18:02N 50°46' W 001°18'0 0.0
2018-Jun-15 12:49N 50°46' W 001°18'0 0.1
2018-Jun-15 12:29N 50°46' W 001°18'0 0.0
2018-Jun-15 11:59N 50°46' W 001°18'0 0.0
2018-Jun-15 11:29N 50°46' W 001°18'0 0.1
2018-Jun-15 11:00N 50°46' W 001°18'44 6.1
2018-Jun-15 03:53N 50°12' W 002°02'28 4.5
2018-Jun-14 21:39N 49°46' W 002°17'1 6.3
2018-Jun-14 21:30N 49°45' W 002°18'5 9.4
2018-Jun-14 20:58N 49°41' W 002°21'4 8.9
2018-Jun-14 20:30N 49°37' W 002°24'4 8.2
2018-Jun-14 19:58N 49°33' W 002°27'5 7.6
2018-Jun-14 19:15N 49°28' W 002°30'2 0.0
2018-Jun-13 07:54N 49°27' W 002°32'1 2.1
2018-Jun-13 07:28N 49°27' W 002°31'101 5.4
2018-Jun-12 12:36N 48°37' W 004°46'1 9.5
2018-Jun-12 12:28N 48°37' W 004°48'2 4.7
2018-Jun-12 12:00N 48°35' W 004°47'3 6.8
2018-Jun-12 11:30N 48°32' W 004°50'3 6.7
2018-Jun-12 10:59N 48°30' W 004°54'4 6.5
2018-Jun-12 10:27N 48°28' W 004°58'  

Dump ship's entire track history